sensor_id;sensor_type;location;lat;lon;timestamp;pressure;altitude;pressure_sealevel;temperature;humidity
54648;BME280;40543;53.584;9.858;2023-06-26T00:01:29;118145.84;;;-144.59;100.00
54648;BME280;40543;53.584;9.858;2023-06-26T00:03:56;118145.84;;;-144.59;100.00
54648;BME280;40543;53.584;9.858;2023-06-26T00:06:21;118145.84;;;-144.59;100.00
54648;BME280;40543;53.584;9.858;2023-06-26T00:08:50;118145.84;;;-144.59;100.00
54648;BME280;40543;53.584;9.858;2023-06-26T00:11:15;118145.84;;;-144.59;100.00
54648;BME280;40543;53.584;9.858;2023-06-26T00:13:40;118145.84;;;-144.59;100.00
54648;BME280;40543;53.584;9.858;2023-06-26T00:16:07;118145.84;;;-144.59;100.00
54648;BME280;40543;53.584;9.858;2023-06-26T00:18:32;118145.84;;;-144.59;100.00
54648;BME280;40543;53.584;9.858;2023-06-26T00:20:57;118145.84;;;-144.59;100.00
54648;BME280;40543;53.584;9.858;2023-06-26T00:23:23;118145.84;;;-144.59;100.00
54648;BME280;40543;53.584;9.858;2023-06-26T00:25:48;118145.84;;;-144.59;100.00
54648;BME280;40543;53.584;9.858;2023-06-26T00:28:13;118145.84;;;-144.59;100.00
54648;BME280;40543;53.584;9.858;2023-06-26T00:30:38;118145.84;;;-144.59;100.00
54648;BME280;40543;53.584;9.858;2023-06-26T00:33:04;118145.84;;;-144.59;100.00
54648;BME280;40543;53.584;9.858;2023-06-26T00:35:29;118145.84;;;-144.59;100.00
54648;BME280;40543;53.584;9.858;2023-06-26T00:37:54;118145.84;;;-144.59;100.00
54648;BME280;40543;53.584;9.858;2023-06-26T00:40:20;118145.84;;;-144.59;100.00
54648;BME280;40543;53.584;9.858;2023-06-26T00:42:45;118145.84;;;-144.59;100.00
54648;BME280;40543;53.584;9.858;2023-06-26T00:45:10;118145.84;;;-144.59;100.00
54648;BME280;40543;53.584;9.858;2023-06-26T00:47:36;118145.84;;;-144.59;100.00
54648;BME280;40543;53.584;9.858;2023-06-26T00:50:02;118145.84;;;-144.59;100.00
54648;BME280;40543;53.584;9.858;2023-06-26T00:52:28;118145.84;;;-144.59;100.00
54648;BME280;40543;53.584;9.858;2023-06-26T00:54:53;118145.84;;;-144.59;100.00
54648;BME280;40543;53.584;9.858;2023-06-26T00:57:19;118145.84;;;-144.59;100.00
54648;BME280;40543;53.584;9.858;2023-06-26T00:59:44;118145.84;;;-144.59;100.00
54648;BME280;40543;53.584;9.858;2023-06-26T01:02:09;118145.84;;;-144.59;100.00
54648;BME280;40543;53.584;9.858;2023-06-26T01:04:35;118145.84;;;-144.59;100.00
54648;BME280;40543;53.584;9.858;2023-06-26T01:07:01;118145.84;;;-144.59;100.00
54648;BME280;40543;53.584;9.858;2023-06-26T01:09:27;118145.84;;;-144.59;100.00
54648;BME280;40543;53.584;9.858;2023-06-26T01:11:54;118145.84;;;-144.59;100.00
54648;BME280;40543;53.584;9.858;2023-06-26T01:14:20;118145.84;;;-144.59;100.00
54648;BME280;40543;53.584;9.858;2023-06-26T01:16:46;118145.84;;;-144.59;100.00
54648;BME280;40543;53.584;9.858;2023-06-26T01:19:38;118145.84;;;-144.59;100.00
54648;BME280;40543;53.584;9.858;2023-06-26T01:27:34;118145.84;;;-144.59;100.00
54648;BME280;40543;53.584;9.858;2023-06-26T01:30:02;118145.84;;;-144.59;100.00
54648;BME280;40543;53.584;9.858;2023-06-26T01:32:29;118145.84;;;-144.59;100.00
54648;BME280;40543;53.584;9.858;2023-06-26T01:34:55;118145.84;;;-144.59;100.00
54648;BME280;40543;53.584;9.858;2023-06-26T01:37:20;118145.84;;;-144.59;100.00
54648;BME280;40543;53.584;9.858;2023-06-26T01:39:45;118145.84;;;-144.59;100.00
54648;BME280;40543;53.584;9.858;2023-06-26T01:42:11;118145.84;;;-144.59;100.00
54648;BME280;40543;53.584;9.858;2023-06-26T01:44:40;118145.84;;;-144.59;100.00
54648;BME280;40543;53.584;9.858;2023-06-26T01:47:07;118145.84;;;-144.59;100.00
54648;BME280;40543;53.584;9.858;2023-06-26T01:50:05;118145.84;;;-144.59;100.00
54648;BME280;40543;53.584;9.858;2023-06-26T01:52:46;118145.84;;;-144.59;100.00
54648;BME280;40543;53.584;9.858;2023-06-26T01:55:53;118145.84;;;-144.59;100.00
54648;BME280;40543;53.584;9.858;2023-06-26T01:58:24;118145.84;;;-144.59;100.00
54648;BME280;40543;53.584;9.858;2023-06-26T02:00:50;118145.84;;;-144.59;100.00
54648;BME280;40543;53.584;9.858;2023-06-26T02:03:16;118145.84;;;-144.59;100.00
54648;BME280;40543;53.584;9.858;2023-06-26T02:05:41;118145.84;;;-144.59;100.00
54648;BME280;40543;53.584;9.858;2023-06-26T02:08:08;118145.84;;;-144.59;100.00
54648;BME280;40543;53.584;9.858;2023-06-26T02:10:33;118145.84;;;-144.59;100.00
54648;BME280;40543;53.584;9.858;2023-06-26T02:13:00;118145.84;;;-144.59;100.00
54648;BME280;40543;53.584;9.858;2023-06-26T02:15:25;118145.84;;;-144.59;100.00
54648;BME280;40543;53.584;9.858;2023-06-26T02:17:51;118145.84;;;-144.59;100.00
54648;BME280;40543;53.584;9.858;2023-06-26T02:20:16;118145.84;;;-144.59;100.00
54648;BME280;40543;53.584;9.858;2023-06-26T02:22:41;118145.84;;;-144.59;100.00
54648;BME280;40543;53.584;9.858;2023-06-26T02:25:08;118145.84;;;-144.59;100.00
54648;BME280;40543;53.584;9.858;2023-06-26T02:27:33;118145.84;;;-144.59;100.00
54648;BME280;40543;53.584;9.858;2023-06-26T02:29:59;118145.84;;;-144.59;100.00
54648;BME280;40543;53.584;9.858;2023-06-26T02:32:24;118145.84;;;-144.59;100.00
54648;BME280;40543;53.584;9.858;2023-06-26T02:34:49;118145.84;;;-144.59;100.00
54648;BME280;40543;53.584;9.858;2023-06-26T02:37:17;118145.84;;;-144.59;100.00
54648;BME280;40543;53.584;9.858;2023-06-26T02:39:42;118145.84;;;-144.59;100.00
54648;BME280;40543;53.584;9.858;2023-06-26T02:42:08;118145.84;;;-144.59;100.00
54648;BME280;40543;53.584;9.858;2023-06-26T02:44:33;118145.84;;;-144.59;100.00
54648;BME280;40543;53.584;9.858;2023-06-26T02:46:58;118145.84;;;-144.59;100.00
54648;BME280;40543;53.584;9.858;2023-06-26T02:49:24;118145.84;;;-144.59;100.00
54648;BME280;40543;53.584;9.858;2023-06-26T02:51:49;118145.84;;;-144.59;100.00
54648;BME280;40543;53.584;9.858;2023-06-26T02:54:14;118145.84;;;-144.59;100.00
54648;BME280;40543;53.584;9.858;2023-06-26T02:56:40;118145.84;;;-144.59;100.00
54648;BME280;40543;53.584;9.858;2023-06-26T02:59:05;118145.84;;;-144.59;100.00
54648;BME280;40543;53.584;9.858;2023-06-26T03:01:30;118145.84;;;-144.59;100.00
54648;BME280;40543;53.584;9.858;2023-06-26T03:03:56;118145.84;;;-144.59;100.00
54648;BME280;40543;53.584;9.858;2023-06-26T03:06:21;118145.84;;;-144.59;100.00
54648;BME280;40543;53.584;9.858;2023-06-26T03:08:46;118145.84;;;-144.59;100.00
54648;BME280;40543;53.584;9.858;2023-06-26T03:11:12;118145.84;;;-144.59;100.00
54648;BME280;40543;53.584;9.858;2023-06-26T03:13:37;118145.84;;;-144.59;100.00
54648;BME280;40543;53.584;9.858;2023-06-26T03:16:03;118145.84;;;-144.59;100.00
54648;BME280;40543;53.584;9.858;2023-06-26T03:18:29;118145.84;;;-144.59;100.00
54648;BME280;40543;53.584;9.858;2023-06-26T03:20:55;118145.84;;;-144.59;100.00
54648;BME280;40543;53.584;9.858;2023-06-26T03:23:21;118145.84;;;-144.59;100.00
54648;BME280;40543;53.584;9.858;2023-06-26T03:25:47;118145.84;;;-144.59;100.00
54648;BME280;40543;53.584;9.858;2023-06-26T03:28:12;118145.84;;;-144.59;100.00
54648;BME280;40543;53.584;9.858;2023-06-26T03:30:38;118145.84;;;-144.59;100.00
54648;BME280;40543;53.584;9.858;2023-06-26T03:33:03;118145.84;;;-144.59;100.00
54648;BME280;40543;53.584;9.858;2023-06-26T03:35:28;118145.84;;;-144.59;100.00
54648;BME280;40543;53.584;9.858;2023-06-26T03:37:53;118145.84;;;-144.59;100.00
54648;BME280;40543;53.584;9.858;2023-06-26T03:40:20;118145.84;;;-144.59;100.00
54648;BME280;40543;53.584;9.858;2023-06-26T03:42:45;118145.84;;;-144.59;100.00
54648;BME280;40543;53.584;9.858;2023-06-26T03:45:11;118145.84;;;-144.59;100.00
54648;BME280;40543;53.584;9.858;2023-06-26T03:47:36;118145.84;;;-144.59;100.00
54648;BME280;40543;53.584;9.858;2023-06-26T03:50:01;118145.84;;;-144.59;100.00
54648;BME280;40543;53.584;9.858;2023-06-26T03:52:27;118145.84;;;-144.59;100.00
54648;BME280;40543;53.584;9.858;2023-06-26T03:54:52;118145.84;;;-144.59;100.00
54648;BME280;40543;53.584;9.858;2023-06-26T03:57:17;118145.84;;;-144.59;100.00
54648;BME280;40543;53.584;9.858;2023-06-26T03:59:43;118145.84;;;-144.59;100.00
54648;BME280;40543;53.584;9.858;2023-06-26T04:02:08;118145.84;;;-144.59;100.00
54648;BME280;40543;53.584;9.858;2023-06-26T04:04:33;118145.84;;;-144.59;100.00
54648;BME280;40543;53.584;9.858;2023-06-26T04:06:59;118145.84;;;-144.59;100.00
54648;BME280;40543;53.584;9.858;2023-06-26T04:09:25;118145.84;;;-144.59;100.00
54648;BME280;40543;53.584;9.858;2023-06-26T04:11:50;118145.84;;;-144.59;100.00
54648;BME280;40543;53.584;9.858;2023-06-26T04:14:16;118145.84;;;-144.59;100.00
54648;BME280;40543;53.584;9.858;2023-06-26T04:16:41;118145.84;;;-144.59;100.00
54648;BME280;40543;53.584;9.858;2023-06-26T04:19:07;118145.84;;;-144.59;100.00
54648;BME280;40543;53.584;9.858;2023-06-26T04:21:33;118145.84;;;-144.59;100.00
54648;BME280;40543;53.584;9.858;2023-06-26T04:23:58;118145.84;;;-144.59;100.00
54648;BME280;40543;53.584;9.858;2023-06-26T04:26:23;118145.84;;;-144.59;100.00
54648;BME280;40543;53.584;9.858;2023-06-26T04:28:49;118145.84;;;-144.59;100.00
54648;BME280;40543;53.584;9.858;2023-06-26T04:31:14;118145.84;;;-144.59;100.00
54648;BME280;40543;53.584;9.858;2023-06-26T04:33:39;118145.84;;;-144.59;100.00
54648;BME280;40543;53.584;9.858;2023-06-26T04:36:05;118145.84;;;-144.59;100.00
54648;BME280;40543;53.584;9.858;2023-06-26T04:38:32;118145.84;;;-144.59;100.00
54648;BME280;40543;53.584;9.858;2023-06-26T04:40:57;118145.84;;;-144.59;100.00
54648;BME280;40543;53.584;9.858;2023-06-26T04:43:23;118145.84;;;-144.59;100.00
54648;BME280;40543;53.584;9.858;2023-06-26T04:45:48;118145.84;;;-144.59;100.00
54648;BME280;40543;53.584;9.858;2023-06-26T04:48:13;118145.84;;;-144.59;100.00
54648;BME280;40543;53.584;9.858;2023-06-26T04:50:39;118145.84;;;-144.59;100.00
54648;BME280;40543;53.584;9.858;2023-06-26T04:53:05;118145.84;;;-144.59;100.00
54648;BME280;40543;53.584;9.858;2023-06-26T04:55:30;118145.84;;;-144.59;100.00
54648;BME280;40543;53.584;9.858;2023-06-26T04:57:56;118145.84;;;-144.59;100.00
54648;BME280;40543;53.584;9.858;2023-06-26T05:00:21;118145.84;;;-144.59;100.00
54648;BME280;40543;53.584;9.858;2023-06-26T05:02:47;118145.84;;;-144.59;100.00
54648;BME280;40543;53.584;9.858;2023-06-26T05:05:13;118145.84;;;-144.59;100.00
54648;BME280;40543;53.584;9.858;2023-06-26T05:07:41;118145.84;;;-144.59;100.00
54648;BME280;40543;53.584;9.858;2023-06-26T05:10:06;118145.84;;;-144.59;100.00
54648;BME280;40543;53.584;9.858;2023-06-26T05:12:32;118145.84;;;-144.59;100.00
54648;BME280;40543;53.584;9.858;2023-06-26T05:14:58;118145.84;;;-144.59;100.00
54648;BME280;40543;53.584;9.858;2023-06-26T05:17:23;118145.84;;;-144.59;100.00
54648;BME280;40543;53.584;9.858;2023-06-26T05:19:48;118145.84;;;-144.59;100.00
54648;BME280;40543;53.584;9.858;2023-06-26T05:22:14;118145.84;;;-144.59;100.00
54648;BME280;40543;53.584;9.858;2023-06-26T05:24:42;118145.84;;;-144.59;100.00
54648;BME280;40543;53.584;9.858;2023-06-26T05:27:11;118145.84;;;-144.59;100.00
54648;BME280;40543;53.584;9.858;2023-06-26T05:29:44;118145.84;;;-144.59;100.00
54648;BME280;40543;53.584;9.858;2023-06-26T05:32:10;118145.84;;;-144.59;100.00
54648;BME280;40543;53.584;9.858;2023-06-26T05:34:36;118145.84;;;-144.59;100.00
54648;BME280;40543;53.584;9.858;2023-06-26T05:37:03;118145.84;;;-144.59;100.00
54648;BME280;40543;53.584;9.858;2023-06-26T05:39:29;118145.84;;;-144.59;100.00
54648;BME280;40543;53.584;9.858;2023-06-26T05:41:55;118145.84;;;-144.59;100.00
54648;BME280;40543;53.584;9.858;2023-06-26T05:44:21;118145.84;;;-144.59;100.00
54648;BME280;40543;53.584;9.858;2023-06-26T05:46:46;118145.84;;;-144.59;100.00
54648;BME280;40543;53.584;9.858;2023-06-26T05:49:12;118145.84;;;-144.59;100.00
54648;BME280;40543;53.584;9.858;2023-06-26T05:51:37;118145.84;;;-144.59;100.00
54648;BME280;40543;53.584;9.858;2023-06-26T05:54:03;118145.84;;;-144.59;100.00
54648;BME280;40543;53.584;9.858;2023-06-26T05:56:29;118145.84;;;-144.59;100.00
54648;BME280;40543;53.584;9.858;2023-06-26T05:58:55;118145.84;;;-144.59;100.00
54648;BME280;40543;53.584;9.858;2023-06-26T06:01:21;118145.84;;;-144.59;100.00
54648;BME280;40543;53.584;9.858;2023-06-26T06:03:46;118145.84;;;-144.59;100.00
54648;BME280;40543;53.584;9.858;2023-06-26T06:06:12;118145.84;;;-144.59;100.00
54648;BME280;40543;53.584;9.858;2023-06-26T06:08:37;118145.84;;;-144.59;100.00
54648;BME280;40543;53.584;9.858;2023-06-26T06:11:03;118145.84;;;-144.59;100.00
54648;BME280;40543;53.584;9.858;2023-06-26T06:13:28;118145.84;;;-144.59;100.00
54648;BME280;40543;53.584;9.858;2023-06-26T06:15:54;118145.84;;;-144.59;100.00
54648;BME280;40543;53.584;9.858;2023-06-26T06:18:20;118145.84;;;-144.59;100.00
54648;BME280;40543;53.584;9.858;2023-06-26T06:20:46;118145.84;;;-144.59;100.00
54648;BME280;40543;53.584;9.858;2023-06-26T06:23:11;118145.84;;;-144.59;100.00
54648;BME280;40543;53.584;9.858;2023-06-26T06:25:36;118143.81;;;-144.59;100.00
54648;BME280;40543;53.584;9.858;2023-06-26T06:28:02;117880.91;;;-144.59;100.00
54648;BME280;40543;53.584;9.858;2023-06-26T06:30:27;117355.19;;;-144.59;100.00
54648;BME280;40543;53.584;9.858;2023-06-26T06:32:53;116829.53;;;-144.59;99.80
54648;BME280;40543;53.584;9.858;2023-06-26T06:35:18;115252.97;;;-144.59;97.22
54648;BME280;40543;53.584;9.858;2023-06-26T06:37:44;113677.03;;;-144.59;94.54
54648;BME280;40543;53.584;9.858;2023-06-26T06:40:10;113677.03;;;-144.59;94.46
54648;BME280;40543;53.584;9.858;2023-06-26T06:42:36;112626.72;;;-144.59;92.68
54648;BME280;40543;53.584;9.858;2023-06-26T06:45:05;112101.69;;;-144.59;92.53
54648;BME280;40543;53.584;9.858;2023-06-26T06:47:34;108690.53;;;-144.59;89.28
54648;BME280;40543;53.584;9.858;2023-06-26T06:50:00;104758.13;;;-144.59;86.46
54648;BME280;40543;53.584;9.858;2023-06-26T06:52:39;105806.38;;;-144.59;87.10
54648;BME280;40543;53.584;9.858;2023-06-26T06:55:06;100829.53;;;-144.59;84.26
54648;BME280;40543;53.584;9.858;2023-06-26T06:57:35;98474.19;;;-144.59;83.29
54648;BME280;40543;53.584;9.858;2023-06-26T07:00:05;98474.19;;;-144.59;83.50
54648;BME280;40543;53.584;9.858;2023-06-26T07:02:36;105020.16;;;-144.59;85.77
54648;BME280;40543;53.584;9.858;2023-06-26T07:05:03;96120.22;;;-144.59;82.24
54648;BME280;40543;53.584;9.858;2023-06-26T07:07:30;93767.63;;;-144.59;80.72
54648;BME280;40543;53.584;9.858;2023-06-26T07:09:58;86978.94;;;-144.59;78.94
54648;BME280;40543;53.584;9.858;2023-06-26T07:12:23;95858.75;;;-144.59;81.83
54648;BME280;40543;53.584;9.858;2023-06-26T07:14:49;89849.69;;;-144.59;79.80
54648;BME280;40543;53.584;9.858;2023-06-26T07:17:14;85674.72;;;-144.59;78.46
54648;BME280;40543;53.584;9.858;2023-06-26T07:19:39;80201.66;;;-144.59;77.11
54648;BME280;40543;53.584;9.858;2023-06-26T07:22:05;71151.25;;;-144.59;75.66
54648;BME280;40543;53.584;9.858;2023-06-26T07:24:30;87761.66;;;-144.59;78.98
54648;BME280;40543;53.584;9.858;2023-06-26T07:26:55;78118.63;;;-144.59;76.84
54648;BME280;40543;53.584;9.858;2023-06-26T07:29:20;67508.84;;;-144.59;74.73
54648;BME280;40543;53.584;9.858;2023-06-26T07:31:46;70385.97;;;-144.59;75.08
54648;BME280;40543;53.584;9.858;2023-06-26T07:34:13;65653.38;;;-144.59;74.37
54648;BME280;40543;53.584;9.858;2023-06-26T07:36:38;82285.75;;;-144.59;76.97
54648;BME280;40543;53.584;9.858;2023-06-26T07:39:04;66628.66;;;-144.59;74.29
54648;BME280;40543;53.584;9.858;2023-06-26T07:41:29;64684.44;;;-144.59;73.70
54648;BME280;40543;53.584;9.858;2023-06-26T07:43:57;60815.06;;;-144.59;72.33
54648;BME280;40543;53.584;9.858;2023-06-26T07:46:22;60282.56;;;-144.59;71.85
54648;BME280;40543;53.584;9.858;2023-06-26T07:48:48;55584.22;;;-144.59;65.67
54648;BME280;40543;53.584;9.858;2023-06-26T07:51:13;55980.59;;;-144.59;66.99
54648;BME280;40543;53.584;9.858;2023-06-26T07:53:38;59827.03;;;-144.59;71.62
54648;BME280;40543;53.584;9.858;2023-06-26T07:56:04;57799.13;;;-144.59;70.79
54648;BME280;40543;53.584;9.858;2023-06-26T07:58:29;58479.03;;;-144.59;70.98
54648;BME280;40543;53.584;9.858;2023-06-26T08:00:55;64512.16;;;-144.59;73.90
54648;BME280;40543;53.584;9.858;2023-06-26T08:03:20;60622.69;;;-144.59;72.28
54648;BME280;40543;53.584;9.858;2023-06-26T08:05:46;64998.63;;;-144.59;74.10
54648;BME280;40543;53.584;9.858;2023-06-26T08:08:12;67884.09;;;-144.59;74.64
54648;BME280;40543;53.584;9.858;2023-06-26T08:10:37;59974.81;;;-144.59;72.18
54648;BME280;40543;53.584;9.858;2023-06-26T08:13:02;66975.44;;;-144.59;74.35
54648;BME280;40543;53.584;9.858;2023-06-26T08:15:28;63772.47;;;-144.59;73.36
54648;BME280;40543;53.584;9.858;2023-06-26T08:17:53;63652.91;;;-144.59;72.97
54648;BME280;40543;53.584;9.858;2023-06-26T08:20:18;60414.16;;;-144.59;71.61
54648;BME280;40543;53.584;9.858;2023-06-26T08:22:44;57443.06;;;-144.59;69.62
54648;BME280;40543;53.584;9.858;2023-06-26T08:25:10;63097.75;;;-144.59;72.68
54648;BME280;40543;53.584;9.858;2023-06-26T08:27:36;61333.47;;;-144.59;72.09
54648;BME280;40543;53.584;9.858;2023-06-26T08:30:01;56433.63;;;-144.59;67.78
54648;BME280;40543;53.584;9.858;2023-06-26T08:32:26;57841.63;;;-144.59;69.65
54648;BME280;40543;53.584;9.858;2023-06-26T08:34:52;56176.75;;;-144.59;67.24
54648;BME280;40543;53.584;9.858;2023-06-26T08:37:17;59270.38;;;-144.59;71.24
54648;BME280;40543;53.584;9.858;2023-06-26T08:39:42;59999.13;;;-144.59;71.76
54648;BME280;40543;53.584;9.858;2023-06-26T08:42:08;62702.69;;;-144.59;72.98
54648;BME280;40543;53.584;9.858;2023-06-26T08:44:33;66953.13;;;-144.59;74.25
54648;BME280;40543;53.584;9.858;2023-06-26T08:47:00;64295.31;;;-144.59;73.14
54648;BME280;40543;53.584;9.858;2023-06-26T08:49:51;63894.06;;;-144.59;72.95
54648;BME280;40543;53.584;9.858;2023-06-26T08:52:31;61760.78;;;-144.59;72.03
54648;BME280;40543;53.584;9.858;2023-06-26T08:55:02;59205.59;;;-144.59;70.84
54648;BME280;40543;53.584;9.858;2023-06-26T08:57:27;61582.56;;;-144.59;72.28
54648;BME280;40543;53.584;9.858;2023-06-26T08:59:53;63898.09;;;-144.59;72.73
54648;BME280;40543;53.584;9.858;2023-06-26T09:02:19;60900.09;;;-144.59;71.68
54648;BME280;40543;53.584;9.858;2023-06-26T09:04:48;60827.22;;;-144.59;71.46
54648;BME280;40543;53.584;9.858;2023-06-26T09:07:14;60746.22;;;-144.59;71.07
54648;BME280;40543;53.584;9.858;2023-06-26T09:09:40;58610.59;;;-144.59;69.76
54648;BME280;40543;53.584;9.858;2023-06-26T09:12:05;58381.91;;;-144.59;69.53
54648;BME280;40543;53.584;9.858;2023-06-26T09:14:31;61209.94;;;-144.59;71.14
54648;BME280;40543;53.584;9.858;2023-06-26T09:16:57;57123.41;;;-144.59;68.16
54648;BME280;40543;53.584;9.858;2023-06-26T09:19:22;58926.31;;;-144.59;70.28
54648;BME280;40543;53.584;9.858;2023-06-26T09:21:50;69726.34;;;-144.59;74.44
54648;BME280;40543;53.584;9.858;2023-06-26T09:24:16;80201.66;;;-144.59;75.74
54648;BME280;40543;53.584;9.858;2023-06-26T09:26:42;76557.09;;;-144.59;75.32
54648;BME280;40543;53.584;9.858;2023-06-26T09:29:14;86978.94;;;-144.59;77.71
54648;BME280;40543;53.584;9.858;2023-06-26T09:31:40;99520.84;;;-144.59;81.66
54648;BME280;40543;53.584;9.858;2023-06-26T09:34:06;103186.22;;;-144.59;83.20
54648;BME280;40543;53.584;9.858;2023-06-26T09:36:32;103448.16;;;-144.59;82.90
54648;BME280;40543;53.584;9.858;2023-06-26T09:39:01;107117.09;;;-144.59;84.50
54648;BME280;40543;53.584;9.858;2023-06-26T09:41:27;110789.34;;;-144.59;87.37
54648;BME280;40543;53.584;9.858;2023-06-26T09:43:52;112364.19;;;-144.59;88.42
54648;BME280;40543;53.584;9.858;2023-06-26T09:46:24;113677.03;;;-144.59;90.09
54648;BME280;40543;53.584;9.858;2023-06-26T09:48:50;116829.53;;;-144.59;94.33
54648;BME280;40543;53.584;9.858;2023-06-26T09:51:22;118145.84;;;-144.59;98.81
54648;BME280;40543;53.584;9.858;2023-06-26T09:53:48;118145.84;;;-144.59;100.00
54648;BME280;40543;53.584;9.858;2023-06-26T09:56:17;118145.84;;;-144.59;100.00
54648;BME280;40543;53.584;9.858;2023-06-26T09:58:43;118145.84;;;-144.59;100.00
54648;BME280;40543;53.584;9.858;2023-06-26T10:01:09;118145.84;;;-144.59;100.00
54648;BME280;40543;53.584;9.858;2023-06-26T10:03:35;118145.84;;;-144.59;100.00
54648;BME280;40543;53.584;9.858;2023-06-26T10:06:02;118145.84;;;-144.59;100.00
54648;BME280;40543;53.584;9.858;2023-06-26T10:08:28;118145.84;;;-144.59;100.00
54648;BME280;40543;53.584;9.858;2023-06-26T10:10:55;118145.84;;;-144.59;100.00
54648;BME280;40543;53.584;9.858;2023-06-26T10:13:26;118145.84;;;-144.59;100.00
54648;BME280;40543;53.584;9.858;2023-06-26T10:15:53;118145.84;;;-144.59;100.00
54648;BME280;40543;53.584;9.858;2023-06-26T10:18:21;118145.84;;;-144.59;100.00
54648;BME280;40543;53.584;9.858;2023-06-26T10:20:51;118145.84;;;-144.59;100.00
54648;BME280;40543;53.584;9.858;2023-06-26T10:23:19;118145.84;;;-144.59;100.00
54648;BME280;40543;53.584;9.858;2023-06-26T10:25:46;118145.84;;;-144.59;100.00
54648;BME280;40543;53.584;9.858;2023-06-26T10:28:15;118145.84;;;-144.59;100.00
54648;BME280;40543;53.584;9.858;2023-06-26T10:30:43;118145.84;;;-144.59;100.00
54648;BME280;40543;53.584;9.858;2023-06-26T10:33:10;118145.84;;;-144.59;100.00
54648;BME280;40543;53.584;9.858;2023-06-26T10:35:43;118145.84;;;-144.59;100.00
54648;BME280;40543;53.584;9.858;2023-06-26T10:38:09;118145.84;;;-144.59;100.00
54648;BME280;40543;53.584;9.858;2023-06-26T10:40:43;118145.84;;;-144.59;100.00
54648;BME280;40543;53.584;9.858;2023-06-26T10:43:10;118145.84;;;-144.59;100.00
54648;BME280;40543;53.584;9.858;2023-06-26T10:45:37;118145.84;;;-144.59;100.00
54648;BME280;40543;53.584;9.858;2023-06-26T10:48:07;117913.78;;;-144.59;100.00
54648;BME280;40543;53.584;9.858;2023-06-26T10:50:33;117679.66;;;-144.59;100.00
54648;BME280;40543;53.584;9.858;2023-06-26T10:53:09;117420.91;;;-144.59;100.00
54648;BME280;40543;53.584;9.858;2023-06-26T10:55:35;117537.94;;;-144.59;100.00
54648;BME280;40543;53.584;9.858;2023-06-26T10:58:01;117416.78;;;-144.59;100.00
54648;BME280;40543;53.584;9.858;2023-06-26T11:00:27;117809.03;;;-144.59;100.00
54648;BME280;40543;53.584;9.858;2023-06-26T11:02:53;118145.84;;;-144.59;100.00
54648;BME280;40543;53.584;9.858;2023-06-26T11:05:29;118145.84;;;-144.59;100.00
54648;BME280;40543;53.584;9.858;2023-06-26T11:10:48;118145.84;;;-144.59;100.00
54648;BME280;40543;53.584;9.858;2023-06-26T11:13:16;118145.84;;;-144.59;100.00
54648;BME280;40543;53.584;9.858;2023-06-26T11:15:43;118145.84;;;-144.59;100.00
54648;BME280;40543;53.584;9.858;2023-06-26T11:18:10;118145.84;;;-144.59;100.00
54648;BME280;40543;53.584;9.858;2023-06-26T11:20:36;118145.84;;;-144.59;100.00
54648;BME280;40543;53.584;9.858;2023-06-26T11:23:01;118145.84;;;-144.59;100.00
54648;BME280;40543;53.584;9.858;2023-06-26T11:25:29;118145.84;;;-144.59;100.00
54648;BME280;40543;53.584;9.858;2023-06-26T11:27:55;118145.84;;;-144.59;100.00
54648;BME280;40543;53.584;9.858;2023-06-26T11:30:25;118145.84;;;-144.59;100.00
54648;BME280;40543;53.584;9.858;2023-06-26T11:32:50;118145.84;;;-144.59;100.00
54648;BME280;40543;53.584;9.858;2023-06-26T11:35:23;118145.84;;;-144.59;100.00
54648;BME280;40543;53.584;9.858;2023-06-26T11:38:01;118145.84;;;-144.59;100.00
54648;BME280;40543;53.584;9.858;2023-06-26T11:40:35;118145.84;;;-144.59;100.00
54648;BME280;40543;53.584;9.858;2023-06-26T11:43:01;118145.84;;;-144.59;100.00
54648;BME280;40543;53.584;9.858;2023-06-26T11:45:29;118145.84;;;-144.59;100.00
54648;BME280;40543;53.584;9.858;2023-06-26T11:47:56;118145.84;;;-144.59;100.00
54648;BME280;40543;53.584;9.858;2023-06-26T11:50:22;118145.84;;;-144.59;100.00
54648;BME280;40543;53.584;9.858;2023-06-26T11:52:53;118145.84;;;-144.59;100.00
54648;BME280;40543;53.584;9.858;2023-06-26T11:55:19;118145.84;;;-144.59;100.00
54648;BME280;40543;53.584;9.858;2023-06-26T11:57:48;118145.84;;;-144.59;100.00
54648;BME280;40543;53.584;9.858;2023-06-26T12:00:15;118145.84;;;-144.59;100.00
54648;BME280;40543;53.584;9.858;2023-06-26T12:02:45;118145.84;;;-144.59;100.00
54648;BME280;40543;53.584;9.858;2023-06-26T12:05:12;118145.84;;;-144.59;100.00
54648;BME280;40543;53.584;9.858;2023-06-26T12:07:38;118145.84;;;-144.59;100.00
54648;BME280;40543;53.584;9.858;2023-06-26T12:10:04;118145.84;;;-144.59;100.00
54648;BME280;40543;53.584;9.858;2023-06-26T12:12:31;118145.84;;;-144.59;100.00
54648;BME280;40543;53.584;9.858;2023-06-26T12:14:58;118145.84;;;-144.59;100.00
54648;BME280;40543;53.584;9.858;2023-06-26T12:17:25;117092.34;;;-144.59;97.37
54648;BME280;40543;53.584;9.858;2023-06-26T12:19:50;115515.69;;;-144.59;95.83
54648;BME280;40543;53.584;9.858;2023-06-26T12:22:19;113414.41;;;-144.59;92.92
54648;BME280;40543;53.584;9.858;2023-06-26T12:24:45;117355.19;;;-144.59;100.00
54648;BME280;40543;53.584;9.858;2023-06-26T12:27:13;118145.84;;;-144.59;100.00
54648;BME280;40543;53.584;9.858;2023-06-26T12:29:59;116566.72;;;-144.59;96.40
54648;BME280;40543;53.584;9.858;2023-06-26T12:32:25;117355.19;;;-144.59;99.34